Time;durP1;ratioP1;P1;durP2;ratioP2;P2;SDS_P1;SDS_P2;PMS_P1;PMS_P2;Temp;Humidity;BMP_temperature;BMP_pressure;BME280_temperature;BME280_humidity;BME280_pressure;Samples;Min_cycle;Max_cycle;Signal;HPM_P1;HPM_P2
2022/12/13 00:01:38;;;;;;;15.13;10.73;;;-0.40;99.90;;;;;;5016340;28;20801;-66
2022/12/13 00:04:07;;;;;;;16.63;11.40;;;-0.40;99.90;;;;;;5016551;28;20851;-67
2022/12/13 00:06:35;;;;;;;15.40;11.20;;;-0.40;99.90;;;;;;5016071;28;21017;-66
2022/12/13 00:09:03;;;;;;;17.30;11.80;;;-0.50;99.90;;;;;;5016242;28;20515;-67
2022/12/13 00:11:31;;;;;;;19.23;12.90;;;-0.40;99.90;;;;;;5015954;28;20460;-67
2022/12/13 00:13:59;;;;;;;18.53;13.07;;;-0.50;99.90;;;;;;5015782;28;20559;-66
2022/12/13 00:16:26;;;;;;;19.60;12.60;;;-0.50;99.90;;;;;;5016165;28;20552;-66
2022/12/13 00:18:55;;;;;;;17.50;12.17;;;-0.50;99.90;;;;;;5015675;28;20463;-67
2022/12/13 00:21:24;;;;;;;19.33;11.60;;;-0.50;99.90;;;;;;5015857;28;20668;-67
2022/12/13 00:23:50;;;;;;;20.77;12.10;;;-0.50;99.90;;;;;;5015859;28;20560;-67
2022/12/13 00:26:21;;;;;;;19.07;12.30;;;-0.50;99.90;;;;;;5015217;28;20465;-66
2022/12/13 00:28:50;;;;;;;18.40;11.87;;;-0.50;99.90;;;;;;5015686;28;20441;-66
2022/12/13 00:31:19;;;;;;;18.03;11.90;;;-0.60;99.90;;;;;;5015703;28;20811;-66
2022/12/13 00:33:47;;;;;;;20.03;12.30;;;-0.50;99.90;;;;;;5015365;28;20543;-66
2022/12/13 00:36:14;;;;;;;18.53;12.60;;;-0.50;99.90;;;;;;5014589;28;20539;-67
2022/12/13 00:38:41;;;;;;;22.87;13.40;;;-0.60;99.90;;;;;;5015879;28;20556;-66
2022/12/13 00:41:13;;;;;;;19.57;12.23;;;-0.60;99.90;;;;;;5015657;28;20867;-66
2022/12/13 00:43:40;;;;;;;20.23;13.47;;;-0.60;99.90;;;;;;5015762;28;20540;-67
2022/12/13 00:46:11;;;;;;;18.77;12.27;;;-0.50;99.90;;;;;;5015347;28;20507;-67
2022/12/13 00:48:39;;;;;;;22.47;12.40;;;-0.50;99.90;;;;;;5015645;28;20459;-66
2022/12/13 00:51:07;;;;;;;19.83;12.83;;;-0.50;99.90;;;;;;5015681;28;20544;-65
2022/12/13 00:53:34;;;;;;;20.30;12.80;;;-0.60;99.90;;;;;;5015916;28;20790;-66
2022/12/13 00:56:01;;;;;;;20.30;13.07;;;-0.60;99.90;;;;;;5016354;28;20545;-66
2022/12/13 00:58:28;;;;;;;18.10;11.07;;;-0.50;99.90;;;;;;5015210;28;20986;-68
2022/12/13 01:01:02;;;;;;;15.93;10.90;;;-0.50;99.90;;;;;;5015429;28;20556;-68
2022/12/13 01:03:29;;;;;;;16.73;11.13;;;-0.60;99.90;;;;;;5015553;28;20504;-67
2022/12/13 01:05:58;;;;;;;19.90;11.33;;;-0.60;99.90;;;;;;5015352;28;20552;-67
2022/12/13 01:08:26;;;;;;;16.03;11.03;;;-0.60;99.90;;;;;;5015370;28;20472;-67
2022/12/13 01:10:53;;;;;;;21.63;11.93;;;-0.60;99.90;;;;;;5015424;28;20453;-68
2022/12/13 01:13:20;;;;;;;18.07;11.10;;;-0.60;99.90;;;;;;5014766;28;20499;-66
2022/12/13 01:15:47;;;;;;;17.80;10.33;;;-0.60;99.90;;;;;;5015055;28;20467;-66
2022/12/13 01:18:17;;;;;;;14.80;10.20;;;-0.60;99.90;;;;;;5015543;28;20536;-67
2022/12/13 01:20:56;;;;;;;18.77;11.00;;;-0.60;99.90;;;;;;5015508;28;20800;-67
2022/12/13 01:23:24;;;;;;;16.87;11.50;;;-0.60;99.90;;;;;;5015525;28;20436;-68
2022/12/13 01:25:51;;;;;;;16.30;10.80;;;-0.60;99.90;;;;;;5015664;28;20520;-66
2022/12/13 01:28:18;;;;;;;18.60;11.27;;;-0.60;99.90;;;;;;5015648;28;20548;-66
2022/12/13 01:30:52;;;;;;;14.47;10.20;;;-0.60;99.90;;;;;;5015602;28;20457;-64
2022/12/13 01:33:19;;;;;;;15.87;10.43;;;-0.60;99.90;;;;;;5015848;28;20523;-67
2022/12/13 01:35:46;;;;;;;17.27;10.97;;;-0.60;99.90;;;;;;5015634;28;20703;-66
2022/12/13 01:38:13;;;;;;;15.93;11.60;;;-0.60;99.90;;;;;;5015888;28;20852;-67
2022/12/13 01:40:45;;;;;;;15.40;10.30;;;-0.60;99.90;;;;;;5015442;28;20536;-67
2022/12/13 01:43:13;;;;;;;14.20;10.80;;;-0.50;99.90;;;;;;5015148;28;20479;-66
2022/12/13 01:45:40;;;;;;;15.27;10.43;;;-0.50;99.90;;;;;;5014620;28;20472;-68
2022/12/13 01:48:11;;;;;;;14.20;9.97;;;-0.50;99.90;;;;;;5018509;28;20449;-66
2022/12/13 01:50:44;;;;;;;17.10;10.93;;;-0.50;99.90;;;;;;5018640;28;20528;-66
2022/12/13 01:53:17;;;;;;;16.13;10.50;;;-0.50;99.90;;;;;;5018353;28;20528;-66
2022/12/13 01:55:46;;;;;;;15.33;10.80;;;-0.50;99.90;;;;;;5018345;28;20457;-67
2022/12/13 01:58:14;;;;;;;21.43;12.40;;;-0.50;99.90;;;;;;5018453;28;20544;-67
2022/12/13 02:00:42;;;;;;;18.40;11.00;;;-0.50;99.90;;;;;;5018477;28;20456;-67
2022/12/13 02:03:10;;;;;;;16.33;10.53;;;-0.50;99.90;;;;;;5017899;28;20485;-67
2022/12/13 02:05:42;;;;;;;15.50;10.57;;;-0.50;99.90;;;;;;5017652;28;20470;-66
2022/12/13 02:08:11;;;;;;;20.67;11.50;;;-0.60;99.90;;;;;;5017805;28;20441;-66
2022/12/13 02:10:39;;;;;;;23.87;11.67;;;-0.60;99.90;;;;;;5018402;28;20857;-67
2022/12/13 02:13:07;;;;;;;18.57;11.43;;;-0.60;99.90;;;;;;5018684;28;20548;-66
2022/12/13 02:15:44;;;;;;;16.97;10.80;;;-0.60;99.90;;;;;;5017698;28;20547;-67
2022/12/13 02:18:24;;;;;;;16.60;11.13;;;-0.60;99.90;;;;;;5018106;28;20445;-68
2022/12/13 02:21:20;;;;;;;15.83;9.93;;;-0.60;99.90;;;;;;5017978;28;20539;-66
2022/12/13 02:24:10;;;;;;;21.00;12.17;;;-0.60;99.90;;;;;;5012829;28;20547;-67
2022/12/13 02:27:09;;;;;;;18.70;11.07;;;-0.60;99.90;;;;;;5017986;28;20445;-67
2022/12/13 02:30:16;;;;;;;20.03;11.90;;;-0.60;99.90;;;;;;5017915;28;20468;-68
2022/12/13 02:32:55;;;;;;;18.10;10.27;;;-0.60;99.90;;;;;;5018230;28;20441;-66
2022/12/13 02:35:26;;;;;;;15.90;10.70;;;-0.60;99.90;;;;;;5017990;28;20445;-67
2022/12/13 02:38:02;;;;;;;14.80;10.47;;;-0.50;99.90;;;;;;5018577;28;20448;-67
2022/12/13 02:40:33;;;;;;;15.13;10.70;;;-0.60;99.90;;;;;;5018385;28;20826;-66
2022/12/13 02:43:03;;;;;;;17.63;11.00;;;-0.60;99.90;;;;;;5017666;28;20510;-67
2022/12/13 02:45:37;;;;;;;17.37;11.37;;;-0.60;99.90;;;;;;5017363;28;20440;-67
2022/12/13 02:48:10;;;;;;;17.37;11.80;;;-0.60;99.90;;;;;;5017414;28;20527;-67
2022/12/13 02:50:38;;;;;;;21.17;12.50;;;-0.60;99.90;;;;;;5017414;28;20524;-67
2022/12/13 02:53:07;;;;;;;17.03;10.13;;;-0.60;99.90;;;;;;5017755;28;20463;-66
2022/12/13 02:55:35;;;;;;;19.80;13.33;;;-0.60;99.90;;;;;;5018928;28;20879;-66
2022/12/13 02:58:02;;;;;;;20.40;12.57;;;-0.60;99.90;;;;;;5018231;28;20519;-68
2022/12/13 03:00:40;;;;;;;19.73;13.67;;;-0.50;99.90;;;;;;5018177;28;20947;-66
2022/12/13 03:03:19;;;;;;;19.70;12.27;;;-0.50;99.90;;;;;;5018138;28;20479;-67
2022/12/13 03:08:47;;;;;;;19.33;13.50;;;-0.50;99.90;;;;;;5018046;28;20511;-67
2022/12/13 03:11:19;;;;;;;20.37;12.23;;;-0.50;99.90;;;;;;5017363;28;20529;-66
2022/12/13 03:13:50;;;;;;;17.17;11.13;;;-0.60;99.90;;;;;;5017854;28;20484;-67
2022/12/13 03:16:24;;;;;;;19.53;12.03;;;-0.60;99.90;;;;;;5017191;28;20576;-67
2022/12/13 03:18:54;;;;;;;19.03;12.83;;;-0.60;99.90;;;;;;5017112;28;20544;-67
2022/12/13 03:21:21;;;;;;;22.20;13.50;;;-0.60;99.90;;;;;;5016962;28;20453;-66
2022/12/13 03:23:47;;;;;;;20.27;13.17;;;-0.60;99.90;;;;;;5017207;28;20571;-66
2022/12/13 03:26:18;;;;;;;19.00;12.30;;;-0.60;99.90;;;;;;5017248;28;20469;-66
2022/12/13 03:28:45;;;;;;;22.37;14.27;;;-0.60;99.90;;;;;;5017431;28;20817;-67
2022/12/13 03:31:12;;;;;;;23.40;13.97;;;-0.70;99.90;;;;;;5017213;28;20457;-68
2022/12/13 03:33:39;;;;;;;19.80;12.33;;;-0.70;99.90;;;;;;5017223;28;20541;-67
2022/12/13 03:36:09;;;;;;;19.53;13.67;;;-0.60;99.90;;;;;;5017137;28;20461;-68
2022/12/13 03:38:36;;;;;;;24.47;14.07;;;-0.70;99.90;;;;;;5017337;28;20985;-66
2022/12/13 03:41:08;;;;;;;23.23;13.73;;;-0.60;99.90;;;;;;5017511;28;20464;-66
2022/12/13 03:43:35;;;;;;;22.63;13.83;;;-0.60;99.90;;;;;;5017357;28;20469;-66
2022/12/13 03:46:02;;;;;;;20.70;12.40;;;-0.60;99.90;;;;;;5016895;28;20489;-67
2022/12/13 03:48:29;;;;;;;21.70;13.77;;;-0.60;99.90;;;;;;5017177;28;20449;-67
2022/12/13 03:50:56;;;;;;;26.20;14.10;;;-0.70;99.90;;;;;;5016987;28;20467;-67
2022/12/13 03:53:26;;;;;;;19.70;13.20;;;-0.60;99.90;;;;;;5016904;28;20575;-67
2022/12/13 03:55:53;;;;;;;23.37;12.90;;;-0.60;99.90;;;;;;5017045;28;20556;-68
2022/12/13 03:58:20;;;;;;;20.67;13.63;;;-0.60;99.90;;;;;;5016631;28;20556;-68
2022/12/13 04:00:47;;;;;;;20.30;13.00;;;-0.70;99.90;;;;;;5017269;28;20822;-68
2022/12/13 04:03:14;;;;;;;16.73;12.07;;;-0.60;99.90;;;;;;5016749;28;20571;-68
2022/12/13 04:05:41;;;;;;;20.20;13.20;;;-0.60;99.90;;;;;;5016828;28;20503;-67
2022/12/13 04:08:08;;;;;;;20.90;12.90;;;-0.70;99.90;;;;;;5016374;28;20981;-67
2022/12/13 04:10:36;;;;;;;18.97;12.73;;;-0.70;99.90;;;;;;5016357;28;20559;-67
2022/12/13 04:15:48;;;;;;;22.00;13.40;;;-0.70;99.90;;;;;;5016448;28;20821;-68
2022/12/13 04:18:16;;;;;;;19.17;12.33;;;-0.70;99.90;;;;;;5016834;28;20472;-67
2022/12/13 04:20:42;;;;;;;20.90;13.20;;;-0.80;99.90;;;;;;5016966;28;20468;-66
2022/12/13 04:23:09;;;;;;;18.73;12.00;;;-0.80;99.90;;;;;;5016974;28;20567;-68
2022/12/13 04:25:38;;;;;;;20.33;12.50;;;-0.70;99.90;;;;;;5016652;28;20555;-67
2022/12/13 04:28:05;;;;;;;22.70;13.20;;;-0.70;99.90;;;;;;5016920;28;20465;-68
2022/12/13 04:30:32;;;;;;;18.47;12.70;;;-0.70;99.90;;;;;;5017128;28;20592;-68
2022/12/13 04:32:59;;;;;;;20.50;13.20;;;-0.70;99.90;;;;;;5016563;28;20893;-67
2022/12/13 04:35:26;;;;;;;20.40;12.93;;;-0.70;99.90;;;;;;5016752;28;20460;-67
2022/12/13 04:37:53;;;;;;;19.43;13.17;;;-0.70;99.90;;;;;;5016528;28;20547;-67
2022/12/13 04:40:20;;;;;;;19.90;12.47;;;-0.70;99.90;;;;;;5016458;28;20548;-67
2022/12/13 04:42:48;;;;;;;21.67;13.13;;;-0.70;99.90;;;;;;5016942;28;20532;-68
2022/12/13 04:45:16;;;;;;;18.57;13.83;;;-0.70;99.90;;;;;;5016187;28;20467;-67
2022/12/13 04:47:44;;;;;;;23.80;13.70;;;-0.60;99.90;;;;;;5016159;28;20491;-66
2022/12/13 04:50:11;;;;;;;21.67;13.80;;;-0.60;99.90;;;;;;5016276;28;20456;-68
2022/12/13 04:52:38;;;;;;;19.30;13.13;;;-0.60;99.90;;;;;;5016739;28;20495;-66
2022/12/13 04:55:06;;;;;;;19.07;13.70;;;-0.70;99.90;;;;;;5016482;28;20468;-68
2022/12/13 04:57:33;;;;;;;19.47;13.00;;;-0.60;99.90;;;;;;5016502;28;20465;-67
2022/12/13 05:00:01;;;;;;;21.90;13.00;;;-0.60;99.90;;;;;;5015867;28;20457;-67
2022/12/13 05:02:28;;;;;;;16.93;11.30;;;-0.60;99.90;;;;;;5016144;28;20513;-67
2022/12/13 05:04:55;;;;;;;18.23;11.57;;;-0.60;99.90;;;;;;5016599;28;20466;-67
2022/12/13 05:07:22;;;;;;;19.30;11.50;;;-0.60;99.90;;;;;;5016674;28;20456;-68
2022/12/13 05:09:49;;;;;;;16.70;11.27;;;-0.50;99.90;;;;;;5017522;28;20461;-67
2022/12/13 05:12:15;;;;;;;20.10;12.10;;;-0.50;99.90;;;;;;5016822;28;20467;-67
2022/12/13 05:14:42;;;;;;;21.77;12.80;;;-0.50;99.90;;;;;;5016708;28;20471;-66
2022/12/13 05:17:10;;;;;;;15.10;10.90;;;-0.50;99.90;;;;;;5016395;28;20543;-67
2022/12/13 05:19:37;;;;;;;20.53;12.87;;;-0.50;99.90;;;;;;5017468;28;20491;-68
2022/12/13 05:22:04;;;;;;;21.40;12.43;;;-0.50;99.90;;;;;;5018908;28;20540;-67
2022/12/13 05:24:31;;;;;;;17.77;11.93;;;-0.50;99.90;;;;;;5021091;28;20464;-67
2022/12/13 05:26:58;;;;;;;20.47;12.50;;;-0.50;99.90;;;;;;5020895;28;20460;-67
2022/12/13 05:29:26;;;;;;;25.33;13.00;;;-0.40;99.90;;;;;;5020737;28;20814;-67
2022/12/13 05:31:53;;;;;;;19.67;12.57;;;-0.40;99.90;;;;;;5020758;28;20457;-67
2022/12/13 05:34:21;;;;;;;20.80;12.47;;;-0.40;99.90;;;;;;5021785;28;20457;-68
2022/12/13 05:36:48;;;;;;;20.73;13.10;;;-0.40;99.90;;;;;;5020538;28;20520;-67
2022/12/13 05:39:15;;;;;;;17.40;12.87;;;-0.40;99.90;;;;;;5020156;28;20528;-67
2022/12/13 05:41:42;;;;;;;27.17;14.30;;;-0.40;99.90;;;;;;5020126;28;20533;-67
2022/12/13 05:44:12;;;;;;;29.70;14.30;;;-0.40;99.90;;;;;;5019875;28;20575;-67
2022/12/13 05:46:39;;;;;;;20.13;13.30;;;-0.40;99.90;;;;;;5020215;28;20485;-68
2022/12/13 05:49:05;;;;;;;18.03;12.80;;;-0.40;99.90;;;;;;5020881;28;20461;-68
2022/12/13 05:51:34;;;;;;;27.33;15.30;;;-0.40;99.90;;;;;;5020976;28;20547;-68
2022/12/13 05:54:00;;;;;;;21.50;14.07;;;-0.50;99.90;;;;;;5020912;28;20543;-67
2022/12/13 05:56:27;;;;;;;29.17;13.80;;;-0.40;99.90;;;;;;5020636;28;20543;-66
2022/12/13 05:58:54;;;;;;;20.93;13.87;;;-0.40;99.90;;;;;;5019248;28;20460;-66
2022/12/13 06:01:21;;;;;;;20.10;12.50;;;-0.40;99.90;;;;;;5019074;28;20560;-67
2022/12/13 06:03:48;;;;;;;22.33;12.93;;;-0.50;99.90;;;;;;5018684;28;20495;-67
2022/12/13 06:06:16;;;;;;;19.10;12.60;;;-0.50;99.90;;;;;;5018692;28;20549;-68
2022/12/13 06:08:44;;;;;;;20.70;13.33;;;-0.50;99.90;;;;;;5019129;28;20572;-67
2022/12/13 06:11:11;;;;;;;24.33;14.97;;;-0.50;99.90;;;;;;5018823;28;20464;-68
2022/12/13 06:13:38;;;;;;;18.20;12.60;;;-0.50;99.90;;;;;;5019294;28;20540;-68
2022/12/13 06:16:06;;;;;;;24.03;14.70;;;-0.50;99.90;;;;;;5019559;28;20457;-66
2022/12/13 06:18:35;;;;;;;21.00;13.67;;;-0.50;99.90;;;;;;5020069;28;20917;-67
2022/12/13 06:21:05;;;;;;;20.60;12.90;;;-0.50;99.90;;;;;;5019257;28;20864;-67
2022/12/13 06:23:33;;;;;;;23.43;13.07;;;-0.50;99.90;;;;;;5019345;28;20568;-67
2022/12/13 06:26:04;;;;;;;22.63;13.40;;;-0.60;99.90;;;;;;5018640;28;20567;-67
2022/12/13 06:28:31;;;;;;;22.73;13.83;;;-0.60;99.90;;;;;;5018740;28;20528;-67
2022/12/13 06:31:00;;;;;;;22.53;14.10;;;-0.60;99.90;;;;;;5018227;28;20461;-67
2022/12/13 06:33:27;;;;;;;22.10;13.67;;;-0.60;99.90;;;;;;5018425;28;20625;-67
2022/12/13 06:35:56;;;;;;;23.30;13.97;;;-0.50;99.90;;;;;;5019049;28;20918;-68
2022/12/13 06:38:23;;;;;;;20.80;13.83;;;-0.60;99.90;;;;;;5019110;28;20766;-67
2022/12/13 06:40:50;;;;;;;21.80;14.23;;;-0.50;99.90;;;;;;5018674;28;20456;-68
2022/12/13 06:43:19;;;;;;;23.20;14.03;;;-0.50;99.90;;;;;;5019363;28;20489;-67
2022/12/13 06:45:46;;;;;;;25.47;16.77;;;-0.50;99.90;;;;;;5019285;28;20540;-67
2022/12/13 06:48:13;;;;;;;21.13;13.77;;;-0.50;99.90;;;;;;5019435;28;20524;-69
2022/12/13 06:50:39;;;;;;;21.60;15.40;;;-0.50;99.90;;;;;;5018910;28;20788;-68
2022/12/13 06:53:06;;;;;;;22.70;13.30;;;-0.50;99.90;;;;;;5018395;28;20453;-67
2022/12/13 06:55:35;;;;;;;21.33;14.30;;;-0.50;99.90;;;;;;5017795;28;20556;-67
2022/12/13 06:58:02;;;;;;;24.13;14.73;;;-0.60;99.90;;;;;;5017673;28;20823;-67
2022/12/13 07:00:30;;;;;;;23.20;15.47;;;-0.60;99.90;;;;;;5017674;28;20453;-66
2022/12/13 07:02:57;;;;;;;26.10;15.80;;;-0.60;99.90;;;;;;5017363;28;20572;-67
2022/12/13 07:05:26;;;;;;;23.13;14.93;;;-0.50;99.90;;;;;;5017852;28;20457;-67
2022/12/13 07:07:53;;;;;;;25.77;15.60;;;-0.60;99.90;;;;;;5017406;28;20461;-67
2022/12/13 07:10:21;;;;;;;26.80;14.20;;;-0.60;99.90;;;;;;5017699;28;20471;-68
2022/12/13 07:12:47;;;;;;;22.27;14.63;;;-0.70;99.90;;;;;;5018101;28;20461;-66
2022/12/13 07:15:14;;;;;;;25.67;15.17;;;-0.70;99.90;;;;;;5017548;28;20861;-67
2022/12/13 07:17:42;;;;;;;24.90;15.20;;;-0.80;99.90;;;;;;5018788;28;20465;-67
2022/12/13 07:20:12;;;;;;;23.40;15.20;;;-0.80;99.90;;;;;;5017803;28;20457;-67
2022/12/13 07:22:39;;;;;;;24.77;15.40;;;-0.80;99.90;;;;;;5017637;28;20469;-67
2022/12/13 07:25:06;;;;;;;29.00;16.17;;;-0.80;99.90;;;;;;5016744;28;20467;-67
2022/12/13 07:27:34;;;;;;;26.23;17.10;;;-0.80;99.90;;;;;;5017343;28;20543;-65
2022/12/13 07:30:01;;;;;;;24.37;15.20;;;-0.80;99.90;;;;;;5017261;28;20531;-67
2022/12/13 07:32:28;;;;;;;28.47;15.83;;;-0.80;99.90;;;;;;5016968;28;20529;-68
2022/12/13 07:34:56;;;;;;;23.47;16.40;;;-0.70;99.90;;;;;;5017003;28;20478;-67
2022/12/13 07:37:23;;;;;;;24.87;16.90;;;-0.60;99.90;;;;;;5016904;28;20859;-68
2022/12/13 07:39:50;;;;;;;25.87;15.97;;;-0.60;99.90;;;;;;5017036;28;20772;-67
2022/12/13 07:42:17;;;;;;;28.33;17.70;;;-0.60;99.90;;;;;;5017269;28;20484;-67
2022/12/13 07:44:43;;;;;;;30.90;17.17;;;-0.60;99.90;;;;;;5016953;28;20481;-68
2022/12/13 07:47:11;;;;;;;27.90;16.77;;;-0.60;99.90;;;;;;5016610;28;20568;-67
2022/12/13 07:49:39;;;;;;;31.60;19.17;;;-0.60;99.90;;;;;;5016568;28;20914;-68
2022/12/13 07:52:11;;;;;;;28.27;17.00;;;-0.60;99.90;;;;;;5016355;28;20503;-67
2022/12/13 07:54:38;;;;;;;29.47;18.17;;;-0.60;99.90;;;;;;5016601;28;20516;-67
2022/12/13 07:57:04;;;;;;;28.00;17.53;;;-0.70;99.90;;;;;;5016776;28;20457;-66
2022/12/13 07:59:31;;;;;;;33.20;19.60;;;-0.70;99.90;;;;;;5017018;28;20785;-68
2022/12/13 08:01:58;;;;;;;32.83;18.97;;;-0.80;99.90;;;;;;5016245;28;20597;-67
2022/12/13 08:04:25;;;;;;;27.93;18.53;;;-0.90;99.90;;;;;;5016635;28;20481;-67
2022/12/13 08:06:52;;;;;;;32.80;19.83;;;-0.90;99.90;;;;;;5016680;28;20467;-67
2022/12/13 08:09:20;;;;;;;32.80;19.60;;;-0.90;99.90;;;;;;5016653;28;20484;-67
2022/12/13 08:11:47;;;;;;;30.17;19.10;;;-0.90;99.90;;;;;;5016918;28;20552;-70
2022/12/13 08:14:14;;;;;;;41.40;20.53;;;-0.90;99.90;;;;;;5016376;28;20457;-69
2022/12/13 08:16:41;;;;;;;31.63;18.23;;;-1.00;99.90;;;;;;5016330;28;20928;-67
2022/12/13 08:19:10;;;;;;;32.23;19.37;;;-1.00;99.90;;;;;;5016780;28;20467;-68
2022/12/13 08:21:38;;;;;;;33.70;18.80;;;-1.00;99.90;;;;;;5016392;28;20487;-68
2022/12/13 08:24:06;;;;;;;33.67;19.17;;;-1.10;99.90;;;;;;5016210;28;20571;-67
2022/12/13 08:26:35;;;;;;;36.30;20.13;;;-1.10;99.90;;;;;;5016615;28;20468;-67
2022/12/13 08:29:01;;;;;;;32.57;19.97;;;-1.00;99.90;;;;;;5016892;28;20535;-68
2022/12/13 08:31:28;;;;;;;27.93;18.23;;;-1.00;99.90;;;;;;5016607;28;20485;-67
2022/12/13 08:33:55;;;;;;;33.40;19.13;;;-1.00;99.90;;;;;;5015778;28;20922;-68
2022/12/13 08:36:23;;;;;;;32.67;19.90;;;-1.00;99.90;;;;;;5015988;28;20552;-67
2022/12/13 08:38:51;;;;;;;28.63;17.00;;;-1.00;99.90;;;;;;5015698;28;20457;-67
2022/12/13 08:41:19;;;;;;;32.73;19.87;;;-0.90;99.90;;;;;;5017005;28;20548;-69
2022/12/13 08:43:48;;;;;;;28.53;19.17;;;-0.90;99.90;;;;;;5016096;28;20580;-67
2022/12/13 08:46:15;;;;;;;29.57;18.57;;;-0.90;99.90;;;;;;5015528;28;20556;-69
2022/12/13 08:48:42;;;;;;;30.30;17.90;;;-0.90;99.90;;;;;;5016030;28;20832;-67
2022/12/13 08:51:11;;;;;;;32.70;18.53;;;-0.90;99.90;;;;;;5015627;28;20932;-67
2022/12/13 08:53:38;;;;;;;29.33;17.70;;;-0.80;99.90;;;;;;5015776;28;20548;-67
2022/12/13 08:56:09;;;;;;;29.30;18.90;;;-0.80;99.90;;;;;;5015265;28;21040;-67
2022/12/13 08:58:36;;;;;;;27.13;17.93;;;-0.80;99.90;;;;;;5016470;28;20445;-67
2022/12/13 09:01:07;;;;;;;31.37;18.20;;;-0.70;99.90;;;;;;5015713;28;20488;-68
2022/12/13 09:03:33;;;;;;;25.33;16.67;;;-0.70;99.90;;;;;;5015746;28;20467;-69
2022/12/13 09:06:07;;;;;;;33.97;17.27;;;-0.70;99.90;;;;;;5015933;28;20544;-68
2022/12/13 09:08:34;;;;;;;28.53;16.73;;;-0.70;99.90;;;;;;5016309;28;20535;-66
2022/12/13 09:11:02;;;;;;;30.97;16.40;;;-0.70;99.90;;;;;;5016081;28;20468;-68
2022/12/13 09:13:29;;;;;;;27.53;18.17;;;-0.70;99.90;;;;;;5016301;28;20471;-67
2022/12/13 09:15:57;;;;;;;30.87;18.60;;;-0.60;99.90;;;;;;5016465;28;20736;-66
2022/12/13 09:18:26;;;;;;;32.73;16.70;;;-0.60;99.90;;;;;;5016073;28;20453;-67
2022/12/13 09:20:53;;;;;;;29.73;18.37;;;-0.60;99.90;;;;;;5015784;28;20465;-67
2022/12/13 09:23:19;;;;;;;28.67;18.00;;;-0.60;99.90;;;;;;5016154;28;20583;-67
2022/12/13 09:25:53;;;;;;;32.90;18.57;;;-0.50;99.90;;;;;;5016255;28;20453;-66
2022/12/13 09:28:20;;;;;;;28.23;16.97;;;-0.50;99.90;;;;;;5016483;28;20455;-68
2022/12/13 09:30:47;;;;;;;26.67;16.27;;;-0.40;99.90;;;;;;5016520;28;20499;-67
2022/12/13 09:33:14;;;;;;;29.20;16.10;;;-0.40;99.90;;;;;;5016296;28;20865;-67
2022/12/13 09:35:42;;;;;;;26.23;17.03;;;-0.40;99.90;;;;;;5016538;28;20543;-68
2022/12/13 09:38:09;;;;;;;30.93;17.10;;;-0.40;99.90;;;;;;5016018;28;20544;-67
2022/12/13 09:40:38;;;;;;;30.87;18.87;;;-0.50;99.90;;;;;;5016193;28;20457;-67
2022/12/13 09:43:06;;;;;;;27.00;17.07;;;-0.50;99.90;;;;;;5016359;28;20467;-68
2022/12/13 09:45:35;;;;;;;26.10;17.30;;;-0.50;99.90;;;;;;5016137;28;20484;-67
2022/12/13 09:48:02;;;;;;;29.50;18.00;;;-0.50;99.90;;;;;;5016468;28;20459;-66
2022/12/13 09:50:32;;;;;;;31.33;17.30;;;-0.50;99.90;;;;;;5015725;28;20527;-68
2022/12/13 09:53:02;;;;;;;28.27;17.40;;;-0.50;99.90;;;;;;5015805;28;20457;-67
2022/12/13 09:55:35;;;;;;;27.67;18.17;;;-0.60;99.90;;;;;;5015522;28;20484;-68
2022/12/13 09:58:08;;;;;;;28.20;17.83;;;-0.50;99.90;;;;;;5015540;28;20520;-68
2022/12/13 10:00:36;;;;;;;34.53;16.43;;;-0.50;99.90;;;;;;5016423;28;20441;-67
2022/12/13 10:03:03;;;;;;;27.07;15.90;;;-0.50;99.90;;;;;;5016540;28;20551;-67
2022/12/13 10:05:34;;;;;;;24.40;15.63;;;-0.50;99.90;;;;;;5015650;28;20476;-68
2022/12/13 10:08:07;;;;;;;28.17;16.57;;;-0.60;99.90;;;;;;5017013;28;20544;-68
2022/12/13 10:10:34;;;;;;;25.80;15.03;;;-0.60;99.90;;;;;;5019107;28;20450;-67
2022/12/13 10:13:15;;;;;;;22.00;14.70;;;-0.70;99.90;;;;;;5019010;28;20460;-68
2022/12/13 10:15:47;;;;;;;30.47;16.40;;;-0.70;99.90;;;;;;5018928;28;20743;-68
2022/12/13 10:18:21;;;;;;;31.03;16.13;;;-0.80;99.90;;;;;;5018820;28;20985;-68
2022/12/13 10:20:50;;;;;;;32.37;17.90;;;-0.80;99.90;;;;;;5019101;28;20477;-67
2022/12/13 10:23:18;;;;;;;26.90;17.00;;;-0.70;99.90;;;;;;5018939;28;20461;-68
2022/12/13 10:25:49;;;;;;;25.00;16.30;;;-0.70;99.90;;;;;;5019001;28;20523;-67
2022/12/13 10:28:18;;;;;;;30.37;18.90;;;-0.70;99.90;;;;;;5019337;28;20501;-67
2022/12/13 10:30:45;;;;;;;27.73;17.93;;;-0.60;99.90;;;;;;5019008;28;20548;-69
2022/12/13 10:33:22;;;;;;;25.93;16.30;;;-0.60;99.90;;;;;;5019121;28;20468;-71
2022/12/13 10:36:07;;;;;;;27.20;17.37;;;-0.60;99.90;;;;;;5018882;28;20445;-70
2022/12/13 10:38:38;;;;;;;27.40;18.47;;;-0.60;99.90;;;;;;5018294;28;20543;-68
2022/12/13 10:41:27;;;;;;;32.67;19.20;;;-0.50;99.90;;;;;;5018838;28;20446;-68
2022/12/13 10:44:18;;;;;;;28.33;19.30;;;-0.50;99.90;;;;;;5018794;28;20469;-67
2022/12/13 10:46:50;;;;;;;27.73;17.00;;;-0.40;99.90;;;;;;5018818;28;20488;-67
2022/12/13 10:49:20;;;;;;;29.47;18.90;;;-0.40;99.90;;;;;;5019284;28;20473;-67
2022/12/13 10:51:49;;;;;;;29.43;17.33;;;-0.40;99.90;;;;;;5020981;28;20854;-65
2022/12/13 10:54:28;;;;;;;28.43;18.60;;;-0.30;99.90;;;;;;5019109;28;20780;-67
2022/12/13 10:56:59;;;;;;;28.57;16.87;;;-0.30;99.90;;;;;;5018653;28;20467;-67
2022/12/13 10:59:32;;;;;;;29.13;18.27;;;-0.20;99.90;;;;;;5018670;28;20452;-68
2022/12/13 11:02:00;;;;;;;24.77;16.70;;;-0.10;99.90;;;;;;5018408;28;20484;-67
2022/12/13 11:04:30;;;;;;;24.23;17.60;;;-0.10;99.90;;;;;;5019042;28;20580;-68
2022/12/13 11:06:58;;;;;;;24.30;16.80;;;-0.10;99.90;;;;;;5018632;28;20501;-67
2022/12/13 11:09:29;;;;;;;31.47;17.50;;;-0.10;99.90;;;;;;5017831;28;20540;-67
2022/12/13 11:11:58;;;;;;;27.77;18.30;;;-0.10;99.90;;;;;;5018493;28;20457;-67
2022/12/13 11:14:27;;;;;;;24.90;16.57;;;-0.10;99.90;;;;;;5020676;28;20463;-68
2022/12/13 11:16:57;;;;;;;30.10;18.07;;;0.00;99.90;;;;;;5020319;28;20547;-67
2022/12/13 11:19:28;;;;;;;28.43;18.20;;;0.00;99.90;;;;;;5022025;28;20827;-70
2022/12/13 11:21:55;;;;;;;27.30;17.87;;;0.00;99.90;;;;;;5023921;28;20525;-69
2022/12/13 11:24:26;;;;;;;26.27;17.37;;;0.10;99.90;;;;;;5024220;28;20556;-69
2022/12/13 11:26:58;;;;;;;25.93;16.47;;;0.20;99.90;;;;;;5024367;28;20442;-69
2022/12/13 11:29:49;;;;;;;24.73;16.50;;;0.20;99.90;;;;;;5024217;28;20848;-69
2022/12/13 11:32:26;;;;;;;31.97;18.20;;;0.30;99.90;;;;;;5024822;28;20472;-69
2022/12/13 11:35:02;;;;;;;29.23;17.60;;;0.30;99.90;;;;;;5025311;28;20417;-69
2022/12/13 11:37:33;;;;;;;24.90;16.07;;;0.20;99.90;;;;;;5025890;28;20616;-69
2022/12/13 11:40:05;;;;;;;28.63;15.27;;;0.10;99.90;;;;;;5025257;28;20472;-70
2022/12/13 11:42:40;;;;;;;23.97;15.60;;;0.10;99.90;;;;;;5024648;28;20437;-70
2022/12/13 11:45:14;;;;;;;25.57;16.83;;;0.10;99.90;;;;;;5024714;28;20563;-68
2022/12/13 11:47:48;;;;;;;25.67;15.73;;;0.00;99.90;;;;;;5024712;28;20484;-69
2022/12/13 11:50:17;;;;;;;23.67;15.87;;;0.00;99.90;;;;;;5025017;28;20452;-69
2022/12/13 11:52:50;;;;;;;31.30;19.03;;;0.10;99.90;;;;;;5024785;28;20552;-70
2022/12/13 11:55:22;;;;;;;29.43;17.20;;;0.10;99.90;;;;;;5024821;28;20452;-69
2022/12/13 11:57:57;;;;;;;29.80;17.47;;;0.20;99.90;;;;;;5024679;28;20507;-70
2022/12/13 12:00:33;;;;;;;52.40;24.57;;;0.30;99.90;;;;;;5024954;28;20451;-68
2022/12/13 12:03:13;;;;;;;27.10;16.07;;;0.30;99.90;;;;;;5025207;28;20441;-69
2022/12/13 12:05:45;;;;;;;26.10;15.67;;;0.40;99.90;;;;;;5024623;28;20556;-68
2022/12/13 12:08:18;;;;;;;26.40;16.60;;;0.40;99.90;;;;;;5024598;28;20445;-70
2022/12/13 12:10:46;;;;;;;28.53;16.50;;;0.40;99.90;;;;;;5024213;28;20509;-69
2022/12/13 12:13:19;;;;;;;25.63;15.27;;;0.40;99.90;;;;;;5023786;28;20461;-69
2022/12/13 12:15:54;;;;;;;29.30;15.37;;;0.40;99.90;;;;;;5024012;28;20481;-70
2022/12/13 12:18:21;;;;;;;23.23;15.10;;;0.40;99.90;;;;;;5024138;28;20472;-69
2022/12/13 12:21:01;;;;;;;26.93;16.37;;;0.50;99.90;;;;;;5024284;28;20552;-69
2022/12/13 12:23:41;;;;;;;27.70;15.80;;;0.50;99.90;;;;;;5025182;28;20441;-70
2022/12/13 12:26:13;;;;;;;24.27;15.90;;;0.50;99.90;;;;;;5039422;28;20523;-69
2022/12/13 12:29:00;;;;;;;20.90;14.60;;;0.60;99.90;;;;;;5043308;28;20600;-69
2022/12/13 12:31:33;;;;;;;25.70;15.90;;;0.60;99.90;;;;;;5042562;28;20512;-70
2022/12/13 12:34:12;;;;;;;24.90;15.60;;;0.50;99.90;;;;;;5047634;28;20472;-69
2022/12/13 12:36:51;;;;;;;24.67;16.43;;;0.50;99.90;;;;;;5047626;28;20468;-69
2022/12/13 12:39:34;;;;;;;21.07;14.00;;;0.50;99.90;;;;;;5046115;28;20848;-70
2022/12/13 12:42:16;;;;;;;22.20;15.60;;;0.50;99.90;;;;;;5043403;28;20522;-69
2022/12/13 12:44:58;;;;;;;21.47;14.20;;;0.50;99.90;;;;;;5042937;28;20526;-69
2022/12/13 12:47:34;;;;;;;22.50;15.50;;;0.40;99.90;;;;;;5042048;28;20518;-69